Time;durP1;ratioP1;P1;durP2;ratioP2;P2;SDS_P1;SDS_P2;PMS_P1;PMS_P2;Temp;Humidity;BMP_temperature;BMP_pressure;BME280_temperature;BME280_humidity;BME280_pressure;Samples;Min_cycle;Max_cycle;Signal;HPM_P1;HPM_P2
2021/05/24 00:01:11;;;;;;;0.50;0.50;;;22.10;52.40;;;;;;5135788;28;20050;-62
2021/05/24 00:03:44;;;;;;;0.85;0.65;;;22.10;52.40;;;;;;5135055;28;20049;-63
2021/05/24 00:06:16;;;;;;;0.60;0.60;;;22.10;52.50;;;;;;5136415;28;20054;-65
2021/05/24 00:08:49;;;;;;;1.00;0.70;;;22.10;52.50;;;;;;5122510;28;20579;-67
2021/05/24 00:11:21;;;;;;;0.60;0.57;;;22.10;52.50;;;;;;5139118;28;20426;-61
2021/05/24 00:13:55;;;;;;;0.93;0.55;;;22.10;52.50;;;;;;5134864;28;20054;-64
2021/05/24 00:16:28;;;;;;;1.05;0.50;;;22.10;52.60;;;;;;5137254;28;20237;-65
2021/05/24 00:19:00;;;;;;;0.95;0.80;;;22.00;52.50;;;;;;5137786;28;20680;-64
2021/05/24 00:21:33;;;;;;;0.93;0.60;;;22.00;52.50;;;;;;5141459;28;20548;-63
2021/05/24 00:24:07;;;;;;;0.67;0.67;;;22.00;52.40;;;;;;5140982;28;20054;-65
2021/05/24 00:26:39;;;;;;;0.50;0.50;;;22.10;52.50;;;;;;5139324;28;20051;-66
2021/05/24 00:29:14;;;;;;;1.13;0.80;;;22.10;52.40;;;;;;5136636;28;20109;-63
2021/05/24 00:31:47;;;;;;;1.10;0.80;;;22.10;52.50;;;;;;5139797;28;20480;-68
2021/05/24 00:34:20;;;;;;;0.82;0.52;;;22.10;52.40;;;;;;5141411;28;20073;-66
2021/05/24 00:36:55;;;;;;;0.80;0.70;;;22.10;52.40;;;;;;5141844;28;20048;-65
2021/05/24 00:39:29;;;;;;;0.50;0.50;;;22.10;52.40;;;;;;5145362;28;20066;-62
2021/05/24 00:42:02;;;;;;;0.80;0.65;;;22.10;52.40;;;;;;5137381;28;20054;-64
2021/05/24 00:44:35;;;;;;;2.53;0.80;;;22.10;52.40;;;;;;5143653;28;20058;-60
2021/05/24 00:47:08;;;;;;;1.10;0.70;;;22.10;52.40;;;;;;5142223;28;20066;-66
2021/05/24 00:49:44;;;;;;;0.50;0.50;;;22.10;52.40;;;;;;5142266;28;20061;-65
2021/05/24 00:52:17;;;;;;;1.42;0.70;;;22.00;52.40;;;;;;5128699;28;20046;-65
2021/05/24 00:54:49;;;;;;;1.20;0.70;;;22.10;52.50;;;;;;5139061;28;21175;-65
2021/05/24 00:57:22;;;;;;;0.50;0.50;;;22.10;52.50;;;;;;5141402;28;20046;-64
2021/05/24 00:59:55;;;;;;;0.43;0.43;;;22.10;52.50;;;;;;5140386;28;20042;-66
2021/05/24 01:02:28;;;;;;;0.55;0.50;;;22.00;52.40;;;;;;5144191;28;20550;-65
2021/05/24 01:05:00;;;;;;;0.68;0.68;;;22.10;52.50;;;;;;5138343;28;20042;-65
2021/05/24 01:07:33;;;;;;;0.60;0.50;;;22.00;52.40;;;;;;5142992;28;20050;-67
2021/05/24 01:10:06;;;;;;;1.27;0.90;;;22.10;52.40;;;;;;5143578;28;20050;-66
2021/05/24 01:12:39;;;;;;;0.68;0.68;;;22.10;52.40;;;;;;5139522;28;20050;-66
2021/05/24 01:15:12;;;;;;;0.52;0.52;;;22.10;52.50;;;;;;5141773;28;20046;-63
2021/05/24 01:17:45;;;;;;;2.15;0.93;;;22.10;52.50;;;;;;5139880;28;20703;-63
2021/05/24 01:20:17;;;;;;;1.00;0.70;;;22.10;52.40;;;;;;5142250;28;20046;-66
2021/05/24 01:22:58;;;;;;;1.77;0.80;;;22.00;52.40;;;;;;5141876;28;20046;-67
2021/05/24 01:25:36;;;;;;;0.47;0.47;;;22.00;52.50;;;;;;5146854;28;20042;-67
2021/05/24 01:28:12;;;;;;;0.60;0.60;;;22.00;52.40;;;;;;5140876;28;20614;-64
2021/05/24 01:30:45;;;;;;;0.80;0.50;;;22.10;52.50;;;;;;5145871;28;20237;-62
2021/05/24 01:33:18;;;;;;;0.60;0.60;;;22.10;52.40;;;;;;5143407;28;20049;-65
2021/05/24 01:35:50;;;;;;;0.50;0.50;;;22.10;52.40;;;;;;5145393;28;20529;-64
2021/05/24 01:38:23;;;;;;;0.63;0.63;;;22.10;52.40;;;;;;5147742;28;20130;-66
2021/05/24 01:40:56;;;;;;;0.90;0.60;;;22.10;52.30;;;;;;5147440;28;20046;-66
2021/05/24 01:43:29;;;;;;;0.50;0.50;;;22.10;52.40;;;;;;5138083;28;20042;-66
2021/05/24 01:46:02;;;;;;;0.60;0.47;;;22.10;52.40;;;;;;5143619;28;20430;-63
2021/05/24 01:48:36;;;;;;;1.25;0.57;;;22.10;52.40;;;;;;5144144;28;20065;-64
2021/05/24 01:51:09;;;;;;;;;;;22.00;52.40;;;;;;5145769;28;20050;-61
2021/05/24 01:53:41;;;;;;;0.90;0.50;;;22.10;52.40;;;;;;5144394;28;19930;-65
2021/05/24 01:56:14;;;;;;;0.50;0.50;;;22.10;52.40;;;;;;5145192;28;20576;-62
2021/05/24 01:58:47;;;;;;;1.15;0.52;;;22.10;52.30;;;;;;5143148;28;20693;-63
2021/05/24 02:01:19;;;;;;;0.63;0.50;;;22.10;52.40;;;;;;5143061;28;20151;-64
2021/05/24 02:03:52;;;;;;;1.45;0.90;;;22.10;52.30;;;;;;5148320;28;20062;-66
2021/05/24 02:06:24;;;;;;;1.02;0.60;;;22.10;52.40;;;;;;5140949;28;20050;-64
2021/05/24 02:08:58;;;;;;;0.60;0.50;;;22.10;52.40;;;;;;5143183;28;20054;-65
2021/05/24 02:11:31;;;;;;;0.50;0.40;;;22.10;52.30;;;;;;5141543;28;20065;-66
2021/05/24 02:14:04;;;;;;;1.17;0.90;;;22.10;52.30;;;;;;5146109;28;20069;-63
2021/05/24 02:16:42;;;;;;;0.50;0.50;;;22.10;52.30;;;;;;5144167;28;20037;-63
2021/05/24 02:19:17;;;;;;;0.70;0.60;;;22.10;52.30;;;;;;5144943;28;21064;-64
2021/05/24 02:21:49;;;;;;;1.58;0.50;;;22.10;52.20;;;;;;5142918;28;21309;-63
2021/05/24 02:24:22;;;;;;;0.70;0.50;;;22.10;52.20;;;;;;5140289;28;20486;-62
2021/05/24 02:26:54;;;;;;;0.60;0.40;;;22.10;52.10;;;;;;5139498;28;20053;-62
2021/05/24 02:29:26;;;;;;;0.82;0.50;;;22.20;52.20;;;;;;5149182;28;20053;-62
2021/05/24 02:32:00;;;;;;;0.55;0.50;;;22.10;52.10;;;;;;5144505;28;22155;-67
2021/05/24 02:34:32;;;;;;;0.73;0.57;;;22.20;52.20;;;;;;5142994;28;20053;-65
2021/05/24 02:37:05;;;;;;;0.95;0.60;;;22.20;52.10;;;;;;5138638;28;20060;-65
2021/05/24 02:39:38;;;;;;;0.52;0.43;;;22.10;52.10;;;;;;5138096;28;20791;-64
2021/05/24 02:42:10;;;;;;;1.13;0.52;;;22.10;52.10;;;;;;5143848;28;20053;-67
2021/05/24 02:44:43;;;;;;;0.60;0.60;;;22.10;52.10;;;;;;5158274;28;20402;-64
2021/05/24 02:47:16;;;;;;;1.03;0.90;;;22.20;52.10;;;;;;5148886;28;20050;-66
2021/05/24 02:49:48;;;;;;;0.50;0.50;;;22.10;52.10;;;;;;5137548;28;20057;-66
2021/05/24 02:52:21;;;;;;;0.50;0.47;;;22.10;52.10;;;;;;5142724;28;20901;-64
2021/05/24 02:54:53;;;;;;;0.55;0.55;;;22.10;52.10;;;;;;5139005;28;20050;-61
2021/05/24 02:57:26;;;;;;;0.40;0.40;;;22.10;52.10;;;;;;5135669;28;20055;-64
2021/05/24 02:59:58;;;;;;;0.60;0.45;;;22.10;52.20;;;;;;5138751;28;20601;-60
2021/05/24 03:02:32;;;;;;;;;;;22.20;52.10;;;;;;5154876;28;20825;-64
2021/05/24 03:05:05;;;;;;;0.57;0.47;;;22.10;52.20;;;;;;5138962;28;19925;-63
2021/05/24 03:07:37;;;;;;;0.70;0.65;;;22.10;52.10;;;;;;5137031;28;20053;-65
2021/05/24 03:10:11;;;;;;;0.80;0.70;;;22.10;52.20;;;;;;5136773;28;20049;-60
2021/05/24 03:12:44;;;;;;;1.48;0.60;;;22.10;52.10;;;;;;5141949;28;20057;-63
2021/05/24 03:15:18;;;;;;;0.63;0.45;;;22.10;52.10;;;;;;5141373;28;20053;-62
2021/05/24 03:17:51;;;;;;;;;;;22.10;52.10;;;;;;5135758;28;20058;-64
2021/05/24 03:20:24;;;;;;;0.50;0.50;;;22.10;52.10;;;;;;5139593;28;19925;-66
2021/05/24 03:22:56;;;;;;;0.70;0.60;;;22.10;52.10;;;;;;5139727;28;20054;-61
2021/05/24 03:25:29;;;;;;;0.60;0.60;;;22.10;52.10;;;;;;5140110;28;20054;-64
2021/05/24 03:28:01;;;;;;;2.10;0.60;;;22.10;52.00;;;;;;5138383;28;20041;-61
2021/05/24 03:30:35;;;;;;;;;;;22.10;52.00;;;;;;5139743;28;20576;-60
2021/05/24 03:33:07;;;;;;;0.57;0.50;;;22.10;52.00;;;;;;5141284;28;19930;-61
2021/05/24 03:35:40;;;;;;;0.55;0.47;;;22.10;52.10;;;;;;5136702;28;20046;-64
2021/05/24 03:38:13;;;;;;;1.30;0.57;;;22.10;52.10;;;;;;5123925;28;20380;-61
2021/05/24 03:40:46;;;;;;;0.60;0.60;;;22.10;52.00;;;;;;5130788;28;20801;-59
2021/05/24 03:43:20;;;;;;;0.90;0.60;;;22.10;52.00;;;;;;5125341;28;20045;-68
2021/05/24 03:45:56;;;;;;;0.75;0.50;;;22.10;52.00;;;;;;5126539;28;21253;-62
2021/05/24 03:48:29;;;;;;;0.60;0.60;;;22.10;52.10;;;;;;5123948;28;20062;-60
2021/05/24 03:51:01;;;;;;;0.60;0.60;;;22.10;52.10;;;;;;5130625;28;20293;-62
2021/05/24 03:53:34;;;;;;;0.73;0.70;;;22.10;52.10;;;;;;5126247;28;20316;-59
2021/05/24 03:56:07;;;;;;;0.40;0.40;;;22.10;52.10;;;;;;5134059;28;20054;-60
2021/05/24 03:58:40;;;;;;;0.60;0.47;;;22.00;52.10;;;;;;5129162;28;20047;-59
2021/05/24 04:01:12;;;;;;;0.70;0.52;;;22.10;52.10;;;;;;5132804;28;20072;-61
2021/05/24 04:03:45;;;;;;;0.90;0.60;;;22.10;52.00;;;;;;5135909;28;20050;-62
2021/05/24 04:06:18;;;;;;;1.23;0.50;;;22.10;52.50;;;;;;5138900;28;20057;-62
2021/05/24 04:08:51;;;;;;;0.50;0.50;;;22.10;52.00;;;;;;5139214;28;20521;-61
2021/05/24 04:11:23;;;;;;;1.27;0.82;;;22.10;52.00;;;;;;5138887;28;20050;-65
2021/05/24 04:13:56;;;;;;;0.57;0.50;;;22.10;51.90;;;;;;5143614;28;20050;-62
2021/05/24 04:16:28;;;;;;;0.50;0.47;;;22.10;51.90;;;;;;5148164;28;20046;-61
2021/05/24 04:19:08;;;;;;;0.95;0.60;;;22.10;51.90;;;;;;5142074;28;20037;-66
2021/05/24 04:21:42;;;;;;;0.68;0.40;;;22.10;51.90;;;;;;5141581;28;20047;-63
2021/05/24 04:24:15;;;;;;;0.50;0.50;;;22.20;51.90;;;;;;5145358;28;20715;-62
2021/05/24 04:26:47;;;;;;;0.80;0.60;;;22.10;51.90;;;;;;5138504;28;20058;-66
2021/05/24 04:29:20;;;;;;;0.52;0.50;;;22.10;52.00;;;;;;5139295;28;20058;-63
2021/05/24 04:31:52;;;;;;;0.52;0.50;;;22.10;52.00;;;;;;5138186;28;20042;-61
2021/05/24 04:34:25;;;;;;;0.60;0.60;;;22.10;51.90;;;;;;5141978;28;20080;-64
2021/05/24 04:36:58;;;;;;;0.40;0.40;;;22.10;51.80;;;;;;5141909;28;20061;-66
2021/05/24 04:39:30;;;;;;;0.60;0.60;;;22.20;51.90;;;;;;5139826;28;20053;-66
2021/05/24 04:42:05;;;;;;;0.70;0.60;;;22.20;51.80;;;;;;5138595;28;20061;-63
2021/05/24 04:44:38;;;;;;;0.40;0.40;;;22.20;51.70;;;;;;5130083;28;20719;-64
2021/05/24 04:47:10;;;;;;;0.77;0.47;;;22.30;51.60;;;;;;5135320;28;20065;-63
2021/05/24 04:49:49;;;;;;;0.50;0.40;;;22.30;51.60;;;;;;5137340;28;20077;-63
2021/05/24 04:52:22;;;;;;;0.50;0.50;;;22.30;51.50;;;;;;5142039;28;20046;-63
2021/05/24 04:54:54;;;;;;;0.40;0.40;;;22.40;51.50;;;;;;5136023;28;20060;-65
2021/05/24 04:57:27;;;;;;;1.15;0.40;;;22.40;51.50;;;;;;5140378;28;20050;-66
2021/05/24 05:00:00;;;;;;;0.70;0.63;;;22.40;51.30;;;;;;5128445;28;20496;-66
2021/05/24 05:02:33;;;;;;;0.75;0.50;;;22.40;51.30;;;;;;5137679;28;20053;-64
2021/05/24 05:05:07;;;;;;;1.85;0.70;;;22.40;51.30;;;;;;5139734;28;20046;-65
2021/05/24 05:07:39;;;;;;;0.70;0.40;;;22.40;51.90;;;;;;5147906;28;20338;-63
2021/05/24 05:10:12;;;;;;;0.77;0.63;;;22.40;51.30;;;;;;5135403;28;20396;-66
2021/05/24 05:12:44;;;;;;;1.23;0.57;;;22.40;51.90;;;;;;5135867;28;20077;-65
2021/05/24 05:15:17;;;;;;;0.90;0.80;;;22.40;51.20;;;;;;5134416;28;20042;-68
2021/05/24 05:17:49;;;;;;;0.55;0.50;;;22.50;51.20;;;;;;5138317;28;20057;-63
2021/05/24 05:20:22;;;;;;;0.60;0.60;;;22.50;51.20;;;;;;5144010;28;20047;-67
2021/05/24 05:22:54;;;;;;;0.80;0.60;;;22.50;51.20;;;;;;5141539;28;20529;-63
2021/05/24 05:25:27;;;;;;;0.45;0.40;;;22.50;51.10;;;;;;5142596;28;20538;-68
2021/05/24 05:28:00;;;;;;;0.47;0.40;;;22.50;51.10;;;;;;5155300;28;20572;-63
2021/05/24 05:30:32;;;;;;;0.52;0.50;;;22.50;51.10;;;;;;5138149;28;20054;-66
2021/05/24 05:33:05;;;;;;;0.63;0.52;;;22.50;51.10;;;;;;5138738;28;20053;-63
2021/05/24 05:35:38;;;;;;;0.67;0.60;;;22.50;51.10;;;;;;5140978;28;20669;-65
2021/05/24 05:38:10;;;;;;;0.53;0.40;;;22.60;51.10;;;;;;5141322;28;20050;-64
2021/05/24 05:40:47;;;;;;;0.40;0.40;;;22.60;51.10;;;;;;5139029;28;20037;-66
2021/05/24 05:43:20;;;;;;;0.57;0.47;;;22.50;51.00;;;;;;5135630;28;20045;-61
2021/05/24 05:45:52;;;;;;;0.60;0.50;;;22.50;51.10;;;;;;5142089;28;20937;-63
2021/05/24 05:48:25;;;;;;;0.90;0.60;;;22.50;51.10;;;;;;5142384;28;20084;-62
2021/05/24 05:50:58;;;;;;;0.57;0.55;;;22.60;51.00;;;;;;5138757;28;20057;-64
2021/05/24 05:53:32;;;;;;;0.50;0.47;;;22.60;51.00;;;;;;5143601;28;20046;-64
2021/05/24 05:56:05;;;;;;;0.50;0.50;;;22.60;51.00;;;;;;5140580;28;20089;-66
2021/05/24 05:58:37;;;;;;;0.75;0.70;;;22.60;50.90;;;;;;5143446;28;20046;-65
2021/05/24 06:01:10;;;;;;;0.60;0.50;;;22.60;50.90;;;;;;5140350;28;20050;-63
2021/05/24 06:03:43;;;;;;;2.00;0.70;;;22.60;51.00;;;;;;5142811;28;20050;-65
2021/05/24 06:06:15;;;;;;;0.57;0.57;;;22.70;50.90;;;;;;5139350;28;20065;-64
2021/05/24 06:08:48;;;;;;;0.50;0.50;;;22.60;50.90;;;;;;5142409;28;20816;-66
2021/05/24 06:11:20;;;;;;;1.00;0.70;;;22.60;50.90;;;;;;5140117;28;20042;-65
2021/05/24 06:13:53;;;;;;;0.50;0.50;;;22.60;51.00;;;;;;5135059;28;20278;-63
2021/05/24 06:16:26;;;;;;;0.40;0.40;;;22.70;51.00;;;;;;5141909;28;20050;-67
2021/05/24 06:18:58;;;;;;;0.70;0.60;;;22.60;51.00;;;;;;5136421;28;20586;-65
2021/05/24 06:21:31;;;;;;;0.50;0.50;;;22.60;51.00;;;;;;5134068;28;20069;-66
2021/05/24 06:24:04;;;;;;;1.08;0.98;;;22.60;51.00;;;;;;5145018;28;20534;-66
2021/05/24 06:26:37;;;;;;;0.38;0.38;;;22.60;51.00;;;;;;5137200;28;20045;-62
2021/05/24 06:29:10;;;;;;;0.75;0.50;;;22.60;50.90;;;;;;5140659;28;20450;-62
2021/05/24 06:31:44;;;;;;;0.40;0.40;;;22.70;51.00;;;;;;5137064;28;20425;-66
2021/05/24 06:34:17;;;;;;;0.57;0.57;;;22.60;51.00;;;;;;5141079;28;20555;-65
2021/05/24 06:36:52;;;;;;;0.93;0.50;;;22.70;50.90;;;;;;5138744;28;20200;-66
2021/05/24 06:39:24;;;;;;;0.40;0.40;;;22.70;51.00;;;;;;5139539;28;20046;-67
2021/05/24 06:41:57;;;;;;;0.50;0.50;;;22.70;51.00;;;;;;5139752;28;20050;-63
2021/05/24 06:44:29;;;;;;;1.15;0.50;;;22.60;51.00;;;;;;5137801;28;20439;-66
2021/05/24 06:47:03;;;;;;;0.52;0.50;;;22.60;51.00;;;;;;5137524;28;20053;-64
2021/05/24 06:49:35;;;;;;;1.13;0.73;;;22.70;51.00;;;;;;5140073;28;20073;-64
2021/05/24 06:52:08;;;;;;;1.23;0.60;;;22.60;51.00;;;;;;5138682;28;20065;-66
2021/05/24 06:54:41;;;;;;;0.47;0.47;;;22.70;51.10;;;;;;5142600;28;20065;-65
2021/05/24 06:57:13;;;;;;;0.73;0.50;;;22.60;51.10;;;;;;5138830;28;20419;-67
2021/05/24 06:59:46;;;;;;;0.60;0.50;;;22.70;51.10;;;;;;5134538;28;20057;-67
2021/05/24 07:02:19;;;;;;;0.80;0.57;;;22.70;51.10;;;;;;5137568;28;20142;-66
2021/05/24 07:04:51;;;;;;;0.50;0.50;;;22.70;51.00;;;;;;5139476;28;20046;-65
2021/05/24 07:07:24;;;;;;;0.57;0.50;;;22.70;51.00;;;;;;5136993;28;20041;-65
2021/05/24 07:09:56;;;;;;;0.40;0.40;;;22.70;51.10;;;;;;5139126;28;20046;-66
2021/05/24 07:12:29;;;;;;;0.50;0.50;;;22.70;51.10;;;;;;5140659;28;20050;-66
2021/05/24 07:15:03;;;;;;;0.65;0.50;;;22.70;51.10;;;;;;5140417;28;20053;-68
2021/05/24 07:17:36;;;;;;;0.40;0.40;;;22.70;51.10;;;;;;5138812;28;20498;-66
2021/05/24 07:20:10;;;;;;;0.40;0.40;;;22.70;51.00;;;;;;5140424;28;20061;-65
2021/05/24 07:22:42;;;;;;;0.47;0.47;;;22.70;51.00;;;;;;5137388;28;20054;-63
2021/05/24 07:25:16;;;;;;;0.60;0.60;;;22.70;51.10;;;;;;5141621;28;20058;-65
2021/05/24 07:27:48;;;;;;;0.47;0.47;;;22.70;50.90;;;;;;5138758;28;20744;-64
2021/05/24 07:30:22;;;;;;;0.90;0.70;;;22.70;51.00;;;;;;5140932;28;20046;-65
2021/05/24 07:32:56;;;;;;;0.40;0.40;;;22.70;51.00;;;;;;5142659;28;20042;-67
2021/05/24 07:35:28;;;;;;;0.50;0.40;;;22.70;51.00;;;;;;5143256;28;20049;-64
2021/05/24 07:38:01;;;;;;;0.40;0.40;;;22.70;50.90;;;;;;5145800;28;20042;-64
2021/05/24 07:40:34;;;;;;;0.50;0.43;;;22.70;51.00;;;;;;5141528;28;20524;-65
2021/05/24 07:43:07;;;;;;;1.23;0.55;;;22.70;51.00;;;;;;5150951;28;21438;-64
2021/05/24 07:45:39;;;;;;;0.50;0.50;;;22.70;51.00;;;;;;5155761;28;20053;-65
2021/05/24 07:48:12;;;;;;;0.77;0.60;;;22.70;51.10;;;;;;5147083;28;20486;-62
2021/05/24 07:50:44;;;;;;;0.37;0.37;;;22.70;51.00;;;;;;5150128;28;20063;-65
2021/05/24 07:53:17;;;;;;;0.45;0.45;;;22.70;51.00;;;;;;5136603;28;20470;-62
2021/05/24 07:55:49;;;;;;;0.40;0.40;;;22.70;51.10;;;;;;5143792;28;20104;-64
2021/05/24 07:58:22;;;;;;;0.70;0.50;;;22.70;51.00;;;;;;5157697;28;20043;-64
2021/05/24 08:00:55;;;;;;;0.40;0.38;;;22.70;51.00;;;;;;5145303;28;20042;-61
2021/05/24 08:03:27;;;;;;;0.85;0.65;;;22.70;51.10;;;;;;5148219;28;20054;-62
2021/05/24 08:06:00;;;;;;;0.50;0.40;;;22.70;51.10;;;;;;5144100;28;20042;-63
2021/05/24 08:08:33;;;;;;;0.68;0.55;;;22.70;51.00;;;;;;5144015;28;20046;-61
2021/05/24 08:11:06;;;;;;;0.73;0.52;;;22.70;51.10;;;;;;5143915;28;20060;-64
2021/05/24 08:13:38;;;;;;;1.00;0.47;;;22.70;51.20;;;;;;5146957;28;20392;-64
2021/05/24 08:16:13;;;;;;;0.40;0.30;;;22.70;51.20;;;;;;5149657;28;20050;-66
2021/05/24 08:18:46;;;;;;;0.45;0.45;;;22.70;51.20;;;;;;5152255;28;20101;-63
2021/05/24 08:21:18;;;;;;;0.50;0.50;;;22.70;51.20;;;;;;5146536;28;20050;-66
2021/05/24 08:23:51;;;;;;;0.73;0.65;;;22.60;51.20;;;;;;5138073;28;20038;-62
2021/05/24 08:26:24;;;;;;;0.60;0.50;;;22.60;51.90;;;;;;5137527;28;20053;-61
2021/05/24 08:28:57;;;;;;;0.40;0.40;;;22.60;51.30;;;;;;5141191;28;20050;-64
2021/05/24 08:31:29;;;;;;;0.40;0.40;;;22.60;51.30;;;;;;5148787;28;20378;-62
2021/05/24 08:34:02;;;;;;;0.40;0.40;;;22.60;51.30;;;;;;5141622;28;20054;-63
2021/05/24 08:36:36;;;;;;;0.90;0.45;;;22.60;51.30;;;;;;5138082;28;20050;-63
2021/05/24 08:39:09;;;;;;;0.63;0.57;;;22.60;51.40;;;;;;5143315;28;20506;-63
2021/05/24 08:41:43;;;;;;;0.40;0.40;;;22.60;51.40;;;;;;5154015;28;20426;-63
2021/05/24 08:44:16;;;;;;;0.77;0.57;;;22.60;51.40;;;;;;5143824;28;20051;-65
2021/05/24 08:46:53;;;;;;;0.50;0.50;;;22.50;51.40;;;;;;5135724;28;20630;-65
2021/05/24 08:49:46;;;;;;;0.50;0.50;;;22.50;51.50;;;;;;5142183;28;20415;-63
2021/05/24 08:52:18;;;;;;;0.70;0.57;;;22.50;51.50;;;;;;5138595;28;20112;-62
2021/05/24 08:54:51;;;;;;;0.43;0.43;;;22.50;51.50;;;;;;5138017;28;20054;-62
2021/05/24 08:57:24;;;;;;;0.40;0.40;;;22.50;51.50;;;;;;5122550;28;20717;-66
2021/05/24 08:59:56;;;;;;;0.80;0.50;;;22.50;51.60;;;;;;5138869;28;20050;-61
2021/05/24 09:02:29;;;;;;;0.40;0.40;;;22.40;51.60;;;;;;5122437;28;20313;-62
2021/05/24 09:05:09;;;;;;;0.40;0.40;;;22.40;51.70;;;;;;5137630;28;20047;-65
2021/05/24 09:08:04;;;;;;;0.85;0.60;;;22.40;51.70;;;;;;5138612;28;20058;-63
2021/05/24 09:10:37;;;;;;;0.63;0.50;;;22.40;51.80;;;;;;5144091;28;20058;-63
2021/05/24 09:13:11;;;;;;;0.30;0.30;;;22.40;51.90;;;;;;5138334;28;20053;-63
2021/05/24 09:15:47;;;;;;;0.40;0.40;;;22.40;51.90;;;;;;5150756;28;20065;-64
2021/05/24 09:18:20;;;;;;;0.40;0.40;;;22.40;51.90;;;;;;5149417;28;20081;-64
2021/05/24 09:20:53;;;;;;;0.55;0.50;;;22.40;51.90;;;;;;5146531;28;20050;-63
2021/05/24 09:23:30;;;;;;;0.93;0.60;;;22.40;51.90;;;;;;5150181;28;20090;-62
2021/05/24 09:26:08;;;;;;;0.77;0.52;;;22.30;51.90;;;;;;5146424;28;20050;-64
2021/05/24 09:28:49;;;;;;;0.70;0.60;;;22.40;52.00;;;;;;5160165;28;20057;-64
2021/05/24 09:31:25;;;;;;;0.43;0.43;;;22.30;52.00;;;;;;5154270;28;20054;-64
2021/05/24 09:34:00;;;;;;;0.50;0.50;;;22.30;52.10;;;;;;5134130;28;20043;-62
2021/05/24 09:36:33;;;;;;;0.60;0.50;;;22.30;52.00;;;;;;5142927;28;20050;-64
2021/05/24 09:39:11;;;;;;;0.73;0.50;;;22.30;52.00;;;;;;5139941;28;20054;-61
2021/05/24 09:41:45;;;;;;;1.60;0.60;;;22.30;52.10;;;;;;5137847;28;20038;-63
2021/05/24 09:44:30;;;;;;;0.68;0.47;;;22.30;52.10;;;;;;5137465;28;20606;-64
2021/05/24 09:47:03;;;;;;;0.60;0.40;;;22.30;52.10;;;;;;5133058;28;20515;-63
2021/05/24 09:49:36;;;;;;;0.35;0.35;;;22.30;52.10;;;;;;5138432;28;20057;-62
2021/05/24 09:52:08;;;;;;;0.73;0.53;;;22.30;52.10;;;;;;5136119;28;20085;-64
2021/05/24 09:54:41;;;;;;;0.38;0.38;;;22.30;52.20;;;;;;5136697;28;20308;-65
2021/05/24 09:57:18;;;;;;;0.50;0.50;;;22.30;52.20;;;;;;5138014;28;20054;-61
2021/05/24 09:59:51;;;;;;;0.50;0.40;;;22.30;52.20;;;;;;5139431;28;20857;-64
2021/05/24 10:02:26;;;;;;;1.13;0.40;;;22.30;52.20;;;;;;5141637;28;20059;-64
2021/05/24 10:05:00;;;;;;;0.77;0.50;;;22.30;52.20;;;;;;5138777;28;20054;-64
2021/05/24 10:07:33;;;;;;;1.48;0.45;;;22.30;52.20;;;;;;5142759;28;20050;-59
2021/05/24 10:10:07;;;;;;;0.40;0.40;;;22.30;52.20;;;;;;5140310;28;21321;-63
2021/05/24 10:12:42;;;;;;;0.60;0.60;;;22.30;52.90;;;;;;5138643;28;20057;-61
2021/05/24 10:15:15;;;;;;;0.50;0.50;;;22.30;52.20;;;;;;5141415;28;20050;-63
2021/05/24 10:17:57;;;;;;;0.73;0.68;;;22.30;52.20;;;;;;5122375;28;20524;-61
2021/05/24 10:20:32;;;;;;;0.50;0.40;;;22.30;52.20;;;;;;5135984;28;20427;-63
2021/05/24 10:23:10;;;;;;;0.60;0.60;;;22.40;52.20;;;;;;5146463;28;20598;-61
2021/05/24 10:25:43;;;;;;;0.77;0.70;;;22.30;52.20;;;;;;5146012;28;20058;-60
2021/05/24 10:28:16;;;;;;;1.55;0.80;;;22.30;52.10;;;;;;5150885;28;20053;-62
2021/05/24 10:31:26;;;;;;;0.50;0.50;;;22.30;52.20;;;;;;5139721;28;20064;-63
2021/05/24 10:34:12;;;;;;;0.43;0.43;;;22.40;52.20;;;;;;5140467;28;20057;-62
2021/05/24 10:37:10;;;;;;;1.30;0.70;;;22.30;52.20;;;;;;5138198;28;20065;-61
2021/05/24 10:39:47;;;;;;;0.82;0.50;;;22.30;52.20;;;;;;5156548;28;20058;-64
2021/05/24 10:42:39;;;;;;;0.50;0.50;;;22.30;52.20;;;;;;5146017;28;20083;-60
2021/05/24 10:45:22;;;;;;;0.70;0.40;;;22.30;52.30;;;;;;5139714;28;20046;-62
2021/05/24 10:47:59;;;;;;;0.63;0.50;;;22.30;52.20;;;;;;5138298;28;20050;-62
2021/05/24 10:50:32;;;;;;;0.82;0.60;;;22.30;52.30;;;;;;5155934;28;20045;-63
2021/05/24 10:53:08;;;;;;;0.47;0.47;;;22.30;52.40;;;;;;5137302;28;20050;-65
2021/05/24 10:55:47;;;;;;;0.38;0.38;;;22.30;52.40;;;;;;5139373;28;20535;-64
2021/05/24 10:58:20;;;;;;;0.57;0.57;;;22.30;52.30;;;;;;5134248;28;20042;-65
2021/05/24 11:00:55;;;;;;;;;;;22.30;52.40;;;;;;5141568;28;20951;-64
2021/05/24 11:03:28;;;;;;;0.70;0.38;;;22.30;52.40;;;;;;5137377;28;20401;-62
2021/05/24 11:06:07;;;;;;;0.60;0.40;;;22.20;52.40;;;;;;5143311;28;20590;-64
2021/05/24 11:08:48;;;;;;;0.47;0.40;;;22.20;52.40;;;;;;5144622;28;20056;-63
2021/05/24 11:11:29;;;;;;;0.90;0.40;;;22.20;52.40;;;;;;5146351;28;20084;-62
2021/05/24 11:14:09;;;;;;;0.65;0.65;;;22.20;52.40;;;;;;5141218;28;20057;-64
2021/05/24 11:16:57;;;;;;;0.60;0.60;;;22.30;53.10;;;;;;5141701;28;20050;-64
2021/05/24 11:19:29;;;;;;;0.55;0.32;;;22.30;52.40;;;;;;5137933;28;20524;-63
2021/05/24 11:22:31;;;;;;;0.40;0.40;;;22.30;52.40;;;;;;5140223;28;20422;-65
2021/05/24 11:28:15;;;;;;;1.58;1.33;;;22.30;52.40;;;;;;5136125;28;20594;-61
2021/05/24 11:31:23;;;;;;;0.80;0.60;;;22.30;52.50;;;;;;5139164;28;20061;-65
2021/05/24 11:33:57;;;;;;;0.70;0.65;;;22.30;52.40;;;;;;5135778;28;20054;-63
2021/05/24 11:36:33;;;;;;;0.30;0.30;;;22.20;52.40;;;;;;5135197;28;20054;-65
2021/05/24 11:39:15;;;;;;;0.30;0.30;;;22.30;52.40;;;;;;5131520;28;20054;-63
2021/05/24 11:42:04;;;;;;;0.38;0.38;;;22.30;52.40;;;;;;5132224;28;20706;-65
2021/05/24 11:44:46;;;;;;;0.40;0.40;;;22.20;52.60;;;;;;5140847;28;20949;-63
2021/05/24 11:47:21;;;;;;;0.77;0.60;;;22.20;52.50;;;;;;5153821;28;24234;-65
2021/05/24 11:50:06;;;;;;;0.40;0.40;;;22.20;52.50;;;;;;5144562;28;20049;-63
2021/05/24 11:52:39;;;;;;;0.50;0.50;;;22.30;52.60;;;;;;5148490;28;20666;-64
2021/05/24 11:55:14;;;;;;;0.50;0.50;;;22.30;52.50;;;;;;5137592;28;20054;-63
2021/05/24 11:57:48;;;;;;;0.50;0.47;;;22.30;52.50;;;;;;5135513;28;20037;-62
2021/05/24 12:00:24;;;;;;;0.52;0.45;;;22.30;52.50;;;;;;5138560;28;20050;-65
2021/05/24 12:03:01;;;;;;;1.00;0.50;;;22.20;52.40;;;;;;5137593;28;20566;-64
2021/05/24 12:05:33;;;;;;;0.52;0.50;;;22.30;52.40;;;;;;5139327;28;20058;-66
2021/05/24 12:08:06;;;;;;;0.73;0.50;;;22.30;52.40;;;;;;5134165;28;20050;-62
2021/05/24 12:10:39;;;;;;;0.50;0.50;;;22.30;52.50;;;;;;5134562;28;20503;-64
2021/05/24 12:13:11;;;;;;;0.45;0.43;;;22.30;52.50;;;;;;5138211;28;20050;-65
2021/05/24 12:15:45;;;;;;;0.60;0.60;;;22.30;52.50;;;;;;5143555;28;20046;-64
2021/05/24 12:18:17;;;;;;;0.90;0.50;;;22.30;52.50;;;;;;5140511;28;20050;-64
2021/05/24 12:20:51;;;;;;;1.90;0.60;;;22.30;52.50;;;;;;5141112;28;20045;-63
2021/05/24 12:23:23;;;;;;;0.50;0.50;;;22.30;52.60;;;;;;5142008;28;20064;-67
2021/05/24 12:25:56;;;;;;;0.50;0.50;;;22.20;52.50;;;;;;5145955;28;20041;-64
2021/05/24 12:28:29;;;;;;;0.40;0.40;;;22.20;52.60;;;;;;5142602;28;20414;-64
2021/05/24 12:31:02;;;;;;;0.55;0.55;;;22.20;52.60;;;;;;5143856;28;20042;-64
2021/05/24 12:33:34;;;;;;;0.60;0.60;;;22.20;52.50;;;;;;5142318;28;20050;-63
2021/05/24 12:36:07;;;;;;;0.88;0.50;;;22.30;52.60;;;;;;5124644;28;20051;-65
2021/05/24 12:38:47;;;;;;;0.70;0.70;;;22.20;52.60;;;;;;5140450;28;20053;-63
2021/05/24 12:41:21;;;;;;;0.40;0.40;;;22.20;52.60;;;;;;5142000;28;20042;-64
2021/05/24 12:43:57;;;;;;;0.57;0.57;;;22.20;52.50;;;;;;5138446;28;20050;-63
2021/05/24 12:46:31;;;;;;;0.60;0.55;;;22.20;52.60;;;;;;5151259;28;20042;-65
2021/05/24 12:49:03;;;;;;;0.50;0.50;;;22.20;52.60;;;;;;5125709;28;20050;-65
2021/05/24 12:51:36;;;;;;;0.55;0.55;;;22.20;52.60;;;;;;5139404;28;20431;-65
2021/05/24 12:54:10;;;;;;;1.13;0.50;;;22.20;52.50;;;;;;5130588;28;20541;-63
2021/05/24 12:56:47;;;;;;;0.80;0.70;;;22.20;52.70;;;;;;5138995;28;20595;-64
2021/05/24 12:59:22;;;;;;;0.60;0.60;;;22.20;52.70;;;;;;5139242;28;20053;-66
2021/05/24 13:01:56;;;;;;;0.55;0.52;;;22.20;52.60;;;;;;5138729;28;20041;-62
2021/05/24 13:04:29;;;;;;;1.08;0.57;;;22.20;52.60;;;;;;5131161;28;20490;-63
2021/05/24 13:07:02;;;;;;;0.50;0.50;;;22.20;52.60;;;;;;5138670;28;20058;-64
2021/05/24 13:09:35;;;;;;;0.70;0.55;;;22.20;52.60;;;;;;5141332;28;20054;-64
2021/05/24 13:12:16;;;;;;;1.02;0.40;;;22.20;52.70;;;;;;5142353;28;20054;-64
2021/05/24 13:14:52;;;;;;;0.55;0.50;;;22.20;52.60;;;;;;5149200;28;20049;-63
2021/05/24 13:28:59;;;;;;;0.60;0.60;;;22.20;52.70;;;;;;5138027;28;20498;-63
2021/05/24 13:31:35;;;;;;;0.95;0.50;;;22.20;52.70;;;;;;5149481;28;20042;-66
2021/05/24 13:34:10;;;;;;;0.73;0.57;;;22.20;52.70;;;;;;5143342;28;20050;-65
2021/05/24 13:36:45;;;;;;;0.50;0.50;;;22.20;52.80;;;;;;5147397;28;20057;-65
2021/05/24 13:39:21;;;;;;;0.73;0.60;;;22.10;52.80;;;;;;5138678;28;20053;-62